sensor_id;sensor_type;location;lat;lon;timestamp;temperature;humidity
21928;DHT22;11128;51.096;17.190;2024-01-30T00:03:08;3.80;99.90
21928;DHT22;11128;51.096;17.190;2024-01-30T00:08:09;3.40;99.90
21928;DHT22;11128;51.096;17.190;2024-01-30T00:13:10;2.70;1.00
21928;DHT22;11128;51.096;17.190;2024-01-30T00:18:11;2.70;1.00
21928;DHT22;11128;51.096;17.190;2024-01-30T00:23:13;2.70;1.00
21928;DHT22;11128;51.096;17.190;2024-01-30T00:28:14;2.50;1.00
21928;DHT22;11128;51.096;17.190;2024-01-30T00:33:15;2.30;1.00
21928;DHT22;11128;51.096;17.190;2024-01-30T00:38:17;2.00;1.00
21928;DHT22;11128;51.096;17.190;2024-01-30T00:43:18;1.80;1.00
21928;DHT22;11128;51.096;17.190;2024-01-30T00:48:20;1.50;1.00
21928;DHT22;11128;51.096;17.190;2024-01-30T00:53:21;1.30;1.00
21928;DHT22;11128;51.096;17.190;2024-01-30T00:58:23;1.20;1.00
21928;DHT22;11128;51.096;17.190;2024-01-30T01:03:24;1.10;1.00
21928;DHT22;11128;51.096;17.190;2024-01-30T01:08:25;0.90;1.00
21928;DHT22;11128;51.096;17.190;2024-01-30T01:13:26;1.90;1.00
21928;DHT22;11128;51.096;17.190;2024-01-30T01:18:28;0.70;1.00
21928;DHT22;11128;51.096;17.190;2024-01-30T01:23:29;0.60;1.00
21928;DHT22;11128;51.096;17.190;2024-01-30T01:28:33;0.50;99.90
21928;DHT22;11128;51.096;17.190;2024-01-30T01:33:36;0.40;99.90
21928;DHT22;11128;51.096;17.190;2024-01-30T01:38:38;0.30;99.90
21928;DHT22;11128;51.096;17.190;2024-01-30T01:43:39;0.20;99.90
21928;DHT22;11128;51.096;17.190;2024-01-30T01:48:42;0.20;99.90
21928;DHT22;11128;51.096;17.190;2024-01-30T01:53:44;0.10;99.90
21928;DHT22;11128;51.096;17.190;2024-01-30T01:58:46;0.00;1.00
21928;DHT22;11128;51.096;17.190;2024-01-30T02:03:48;0.00;1.00
21928;DHT22;11128;51.096;17.190;2024-01-30T02:08:50;0.00;1.00
21928;DHT22;11128;51.096;17.190;2024-01-30T02:13:51;-0.10;1.00
21928;DHT22;11128;51.096;17.190;2024-01-30T02:18:53;-0.10;1.00
21928;DHT22;11128;51.096;17.190;2024-01-30T02:23:55;-0.20;1.00
21928;DHT22;11128;51.096;17.190;2024-01-30T02:28:58;-0.20;1.00
21928;DHT22;11128;51.096;17.190;2024-01-30T02:33:59;-0.30;1.00
21928;DHT22;11128;51.096;17.190;2024-01-30T02:39:00;-0.40;1.00
21928;DHT22;11128;51.096;17.190;2024-01-30T02:44:02;-0.40;1.00
21928;DHT22;11128;51.096;17.190;2024-01-30T02:49:04;-0.40;1.00
21928;DHT22;11128;51.096;17.190;2024-01-30T02:54:05;-0.40;1.00
21928;DHT22;11128;51.096;17.190;2024-01-30T02:59:06;-0.40;1.00
21928;DHT22;11128;51.096;17.190;2024-01-30T03:04:07;-0.40;55.30
21928;DHT22;11128;51.096;17.190;2024-01-30T03:09:09;-0.30;1.00
21928;DHT22;11128;51.096;17.190;2024-01-30T03:14:10;-0.20;1.00
21928;DHT22;11128;51.096;17.190;2024-01-30T03:19:12;-0.10;1.00
21928;DHT22;11128;51.096;17.190;2024-01-30T03:24:13;0.10;1.00
21928;DHT22;11128;51.096;17.190;2024-01-30T03:29:14;0.20;1.00
21928;DHT22;11128;51.096;17.190;2024-01-30T03:34:16;0.20;1.00
21928;DHT22;11128;51.096;17.190;2024-01-30T03:39:17;0.20;1.00
21928;DHT22;11128;51.096;17.190;2024-01-30T03:44:19;0.10;1.00
21928;DHT22;11128;51.096;17.190;2024-01-30T03:49:20;0.10;1.00
21928;DHT22;11128;51.096;17.190;2024-01-30T03:54:21;0.00;1.00
21928;DHT22;11128;51.096;17.190;2024-01-30T03:59:23;0.00;1.00
21928;DHT22;11128;51.096;17.190;2024-01-30T04:04:25;0.00;1.00
21928;DHT22;11128;51.096;17.190;2024-01-30T04:09:26;-0.10;1.00
21928;DHT22;11128;51.096;17.190;2024-01-30T04:14:29;-0.20;1.00
21928;DHT22;11128;51.096;17.190;2024-01-30T04:19:31;-0.20;1.00
21928;DHT22;11128;51.096;17.190;2024-01-30T04:24:32;-0.30;1.00
21928;DHT22;11128;51.096;17.190;2024-01-30T04:29:33;-0.40;1.00
21928;DHT22;11128;51.096;17.190;2024-01-30T04:34:36;-0.50;1.00
21928;DHT22;11128;51.096;17.190;2024-01-30T04:39:38;-0.50;1.00
21928;DHT22;11128;51.096;17.190;2024-01-30T04:44:39;-0.60;1.00
21928;DHT22;11128;51.096;17.190;2024-01-30T04:49:40;-0.50;1.00
21928;DHT22;11128;51.096;17.190;2024-01-30T04:54:42;0.30;1.00
21928;DHT22;11128;51.096;17.190;2024-01-30T04:59:44;-0.50;1.00
21928;DHT22;11128;51.096;17.190;2024-01-30T05:04:45;-0.40;1.00
21928;DHT22;11128;51.096;17.190;2024-01-30T05:09:47;-0.50;1.00
21928;DHT22;11128;51.096;17.190;2024-01-30T05:14:48;-0.60;1.00
21928;DHT22;11128;51.096;17.190;2024-01-30T05:19:49;-0.60;1.00
21928;DHT22;11128;51.096;17.190;2024-01-30T05:24:50;-0.60;1.00
21928;DHT22;11128;51.096;17.190;2024-01-30T05:29:52;-0.80;1.00
21928;DHT22;11128;51.096;17.190;2024-01-30T05:34:53;-0.90;73.30
21928;DHT22;11128;51.096;17.190;2024-01-30T05:39:54;-0.90;99.90
21928;DHT22;11128;51.096;17.190;2024-01-30T05:44:55;-0.90;99.90
21928;DHT22;11128;51.096;17.190;2024-01-30T05:49:57;-1.00;99.90
21928;DHT22;11128;51.096;17.190;2024-01-30T05:54:58;-0.90;78.60
21928;DHT22;11128;51.096;17.190;2024-01-30T05:59:59;-0.80;99.90
21928;DHT22;11128;51.096;17.190;2024-01-30T06:05:00;-0.70;1.00
21928;DHT22;11128;51.096;17.190;2024-01-30T06:10:05;-0.80;1.00
21928;DHT22;11128;51.096;17.190;2024-01-30T06:15:06;-0.90;1.00
21928;DHT22;11128;51.096;17.190;2024-01-30T06:20:08;-1.00;1.00
21928;DHT22;11128;51.096;17.190;2024-01-30T06:25:09;-1.10;4.80
21928;DHT22;11128;51.096;17.190;2024-01-30T06:30:11;-1.10;41.90
21928;DHT22;11128;51.096;17.190;2024-01-30T06:35:13;-1.20;99.90
21928;DHT22;11128;51.096;17.190;2024-01-30T06:40:14;-1.30;99.90
21928;DHT22;11128;51.096;17.190;2024-01-30T06:45:16;-1.30;99.90
21928;DHT22;11128;51.096;17.190;2024-01-30T06:50:17;-1.40;1.00
21928;DHT22;11128;51.096;17.190;2024-01-30T06:55:18;-1.30;1.00
21928;DHT22;11128;51.096;17.190;2024-01-30T07:00:20;-1.30;1.00
21928;DHT22;11128;51.096;17.190;2024-01-30T07:05:21;-1.20;1.00
21928;DHT22;11128;51.096;17.190;2024-01-30T07:10:23;-1.20;1.00
21928;DHT22;11128;51.096;17.190;2024-01-30T07:15:24;-1.10;1.00
21928;DHT22;11128;51.096;17.190;2024-01-30T07:20:26;-2.10;1.00
21928;DHT22;11128;51.096;17.190;2024-01-30T07:25:27;-1.00;1.00
21928;DHT22;11128;51.096;17.190;2024-01-30T07:30:30;-0.70;1.00
21928;DHT22;11128;51.096;17.190;2024-01-30T07:35:31;-0.50;1.00
21928;DHT22;11128;51.096;17.190;2024-01-30T07:40:33;0.00;99.90
21928;DHT22;11128;51.096;17.190;2024-01-30T07:45:34;0.60;1.00
21928;DHT22;11128;51.096;17.190;2024-01-30T07:50:35;1.10;1.00
21928;DHT22;11128;51.096;17.190;2024-01-30T07:55:37;1.50;99.90
21928;DHT22;11128;51.096;17.190;2024-01-30T08:00:38;1.90;23.00
21928;DHT22;11128;51.096;17.190;2024-01-30T08:05:40;2.30;1.00
21928;DHT22;11128;51.096;17.190;2024-01-30T08:10:41;2.70;1.00
21928;DHT22;11128;51.096;17.190;2024-01-30T08:15:42;3.20;1.00
21928;DHT22;11128;51.096;17.190;2024-01-30T08:20:44;3.40;1.00
21928;DHT22;11128;51.096;17.190;2024-01-30T08:25:45;3.70;1.00
21928;DHT22;11128;51.096;17.190;2024-01-30T08:30:46;4.00;99.90
21928;DHT22;11128;51.096;17.190;2024-01-30T08:35:47;4.90;99.90
21928;DHT22;11128;51.096;17.190;2024-01-30T08:40:49;5.50;99.90
21928;DHT22;11128;51.096;17.190;2024-01-30T08:45:50;5.00;99.90
21928;DHT22;11128;51.096;17.190;2024-01-30T08:50:52;5.50;99.90
21928;DHT22;11128;51.096;17.190;2024-01-30T08:55:53;6.20;99.90
21928;DHT22;11128;51.096;17.190;2024-01-30T09:00:54;6.00;99.90
21928;DHT22;11128;51.096;17.190;2024-01-30T09:05:56;6.50;99.90
21928;DHT22;11128;51.096;17.190;2024-01-30T09:10:57;6.60;99.90
21928;DHT22;11128;51.096;17.190;2024-01-30T09:15:58;7.00;99.90
21928;DHT22;11128;51.096;17.190;2024-01-30T09:20:59;7.20;99.90
21928;DHT22;11128;51.096;17.190;2024-01-30T09:26:01;7.70;99.90
21928;DHT22;11128;51.096;17.190;2024-01-30T09:31:02;8.10;99.90
21928;DHT22;11128;51.096;17.190;2024-01-30T09:36:04;8.50;99.90
21928;DHT22;11128;51.096;17.190;2024-01-30T09:41:09;8.80;99.90
21928;DHT22;11128;51.096;17.190;2024-01-30T09:46:12;8.90;99.90
21928;DHT22;11128;51.096;17.190;2024-01-30T09:51:17;9.30;96.70
21928;DHT22;11128;51.096;17.190;2024-01-30T09:56:19;9.30;79.30
21928;DHT22;11128;51.096;17.190;2024-01-30T10:01:20;9.50;88.80
21928;DHT22;11128;51.096;17.190;2024-01-30T10:06:24;9.60;54.70
21928;DHT22;11128;51.096;17.190;2024-01-30T10:11:26;10.00;50.00
21928;DHT22;11128;51.096;17.190;2024-01-30T10:16:28;10.50;45.10
21928;DHT22;11128;51.096;17.190;2024-01-30T10:21:32;10.70;39.70
21928;DHT22;11128;51.096;17.190;2024-01-30T10:26:33;10.80;26.10
21928;DHT22;11128;51.096;17.190;2024-01-30T10:31:35;10.90;21.90
21928;DHT22;11128;51.096;17.190;2024-01-30T10:36:40;11.10;16.10
21928;DHT22;11128;51.096;17.190;2024-01-30T10:41:44;11.20;8.70
21928;DHT22;11128;51.096;17.190;2024-01-30T10:46:53;11.20;4.30
21928;DHT22;11128;51.096;17.190;2024-01-30T10:51:57;11.80;2.50
21928;DHT22;11128;51.096;17.190;2024-01-30T10:56:59;11.70;1.00
21928;DHT22;11128;51.096;17.190;2024-01-30T11:02:03;11.90;1.00
21928;DHT22;11128;51.096;17.190;2024-01-30T11:07:18;12.20;1.00
21928;DHT22;11128;51.096;17.190;2024-01-30T11:12:24;11.90;1.00
21928;DHT22;11128;51.096;17.190;2024-01-30T11:17:28;11.70;1.00
21928;DHT22;11128;51.096;17.190;2024-01-30T11:22:30;11.20;1.00
21928;DHT22;11128;51.096;17.190;2024-01-30T11:27:32;11.30;1.00
21928;DHT22;11128;51.096;17.190;2024-01-30T11:32:33;11.70;1.00
21928;DHT22;11128;51.096;17.190;2024-01-30T11:37:37;12.10;1.00
21928;DHT22;11128;51.096;17.190;2024-01-30T11:42:39;12.60;1.00
21928;DHT22;11128;51.096;17.190;2024-01-30T11:47:41;12.90;1.00
21928;DHT22;11128;51.096;17.190;2024-01-30T11:52:43;12.90;1.00
21928;DHT22;11128;51.096;17.190;2024-01-30T11:57:44;13.00;1.00
21928;DHT22;11128;51.096;17.190;2024-01-30T12:02:53;13.10;1.00
21928;DHT22;11128;51.096;17.190;2024-01-30T12:07:58;13.20;1.00
21928;DHT22;11128;51.096;17.190;2024-01-30T12:13:02;13.30;1.00
21928;DHT22;11128;51.096;17.190;2024-01-30T12:18:05;13.60;1.00
21928;DHT22;11128;51.096;17.190;2024-01-30T12:23:12;13.80;1.00
21928;DHT22;11128;51.096;17.190;2024-01-30T12:28:13;13.80;1.00
21928;DHT22;11128;51.096;17.190;2024-01-30T12:33:17;13.90;1.00
21928;DHT22;11128;51.096;17.190;2024-01-30T12:38:19;13.80;1.00
21928;DHT22;11128;51.096;17.190;2024-01-30T12:43:21;14.00;1.00
21928;DHT22;11128;51.096;17.190;2024-01-30T12:48:22;14.30;1.00
21928;DHT22;11128;51.096;17.190;2024-01-30T12:53:23;14.30;1.00
21928;DHT22;11128;51.096;17.190;2024-01-30T12:58:25;14.40;1.00
21928;DHT22;11128;51.096;17.190;2024-01-30T13:03:26;14.00;1.00
21928;DHT22;11128;51.096;17.190;2024-01-30T13:08:28;13.20;1.00
21928;DHT22;11128;51.096;17.190;2024-01-30T13:13:30;12.80;1.00
21928;DHT22;11128;51.096;17.190;2024-01-30T13:18:31;12.60;1.00
21928;DHT22;11128;51.096;17.190;2024-01-30T13:23:32;12.50;1.00
21928;DHT22;11128;51.096;17.190;2024-01-30T13:28:34;12.20;1.00
21928;DHT22;11128;51.096;17.190;2024-01-30T13:33:35;12.10;1.00
21928;DHT22;11128;51.096;17.190;2024-01-30T13:38:37;11.60;1.00
21928;DHT22;11128;51.096;17.190;2024-01-30T13:43:39;11.30;1.00
21928;DHT22;11128;51.096;17.190;2024-01-30T13:48:40;11.10;1.00
21928;DHT22;11128;51.096;17.190;2024-01-30T13:53:41;10.90;1.00
21928;DHT22;11128;51.096;17.190;2024-01-30T13:58:42;10.80;1.00
21928;DHT22;11128;51.096;17.190;2024-01-30T14:03:44;10.60;1.00
21928;DHT22;11128;51.096;17.190;2024-01-30T14:08:45;10.50;1.00
21928;DHT22;11128;51.096;17.190;2024-01-30T14:13:47;10.30;1.00
21928;DHT22;11128;51.096;17.190;2024-01-30T14:18:48;10.10;1.00
21928;DHT22;11128;51.096;17.190;2024-01-30T14:23:49;10.00;1.00
21928;DHT22;11128;51.096;17.190;2024-01-30T14:28:51;9.90;1.00
21928;DHT22;11128;51.096;17.190;2024-01-30T14:33:52;9.70;1.00
21928;DHT22;11128;51.096;17.190;2024-01-30T14:38:54;9.60;1.00
21928;DHT22;11128;51.096;17.190;2024-01-30T14:43:56;9.50;1.00
21928;DHT22;11128;51.096;17.190;2024-01-30T14:48:58;9.30;1.00
21928;DHT22;11128;51.096;17.190;2024-01-30T14:54:00;9.20;1.00
21928;DHT22;11128;51.096;17.190;2024-01-30T14:59:03;9.20;1.00
21928;DHT22;11128;51.096;17.190;2024-01-30T15:04:04;9.10;1.00
21928;DHT22;11128;51.096;17.190;2024-01-30T15:09:06;9.00;1.00
21928;DHT22;11128;51.096;17.190;2024-01-30T15:14:07;8.90;1.00
21928;DHT22;11128;51.096;17.190;2024-01-30T15:19:09;8.80;1.00
21928;DHT22;11128;51.096;17.190;2024-01-30T15:24:10;8.70;1.00
21928;DHT22;11128;51.096;17.190;2024-01-30T15:29:15;8.60;1.00
21928;DHT22;11128;51.096;17.190;2024-01-30T15:34:17;8.50;1.00
21928;DHT22;11128;51.096;17.190;2024-01-30T15:39:18;8.60;1.00
21928;DHT22;11128;51.096;17.190;2024-01-30T15:44:20;8.30;1.00
21928;DHT22;11128;51.096;17.190;2024-01-30T15:49:22;8.20;1.00
21928;DHT22;11128;51.096;17.190;2024-01-30T15:54:24;8.10;1.00
21928;DHT22;11128;51.096;17.190;2024-01-30T15:59:25;7.90;1.00
21928;DHT22;11128;51.096;17.190;2024-01-30T16:04:28;7.90;1.00
21928;DHT22;11128;51.096;17.190;2024-01-30T16:09:30;7.80;1.00
21928;DHT22;11128;51.096;17.190;2024-01-30T16:14:31;7.70;1.00
21928;DHT22;11128;51.096;17.190;2024-01-30T16:19:33;7.60;1.00
21928;DHT22;11128;51.096;17.190;2024-01-30T16:24:34;7.50;1.00
21928;DHT22;11128;51.096;17.190;2024-01-30T16:29:36;7.50;1.00
21928;DHT22;11128;51.096;17.190;2024-01-30T16:34:37;7.30;1.00
21928;DHT22;11128;51.096;17.190;2024-01-30T16:39:38;7.20;1.00
21928;DHT22;11128;51.096;17.190;2024-01-30T16:44:39;7.20;1.00
21928;DHT22;11128;51.096;17.190;2024-01-30T16:49:41;7.40;1.00
21928;DHT22;11128;51.096;17.190;2024-01-30T16:54:42;7.10;1.00
21928;DHT22;11128;51.096;17.190;2024-01-30T16:59:44;7.00;1.00
21928;DHT22;11128;51.096;17.190;2024-01-30T17:04:45;7.00;4.80
21928;DHT22;11128;51.096;17.190;2024-01-30T17:09:47;6.90;10.20
21928;DHT22;11128;51.096;17.190;2024-01-30T17:14:48;7.10;12.50
21928;DHT22;11128;51.096;17.190;2024-01-30T17:19:51;6.80;17.60
21928;DHT22;11128;51.096;17.190;2024-01-30T17:24:52;6.70;24.80
21928;DHT22;11128;51.096;17.190;2024-01-30T17:29:54;6.70;30.70
21928;DHT22;11128;51.096;17.190;2024-01-30T17:34:55;6.60;42.50
21928;DHT22;11128;51.096;17.190;2024-01-30T17:39:57;6.50;51.70
21928;DHT22;11128;51.096;17.190;2024-01-30T17:44:58;6.50;71.40
21928;DHT22;11128;51.096;17.190;2024-01-30T17:50:01;6.40;90.00
21928;DHT22;11128;51.096;17.190;2024-01-30T17:55:03;6.40;97.30
21928;DHT22;11128;51.096;17.190;2024-01-30T18:00:06;6.30;99.90
21928;DHT22;11128;51.096;17.190;2024-01-30T18:05:10;6.20;99.90
21928;DHT22;11128;51.096;17.190;2024-01-30T18:10:12;6.20;99.90
21928;DHT22;11128;51.096;17.190;2024-01-30T18:15:19;6.10;99.90
21928;DHT22;11128;51.096;17.190;2024-01-30T18:20:21;6.80;99.90
21928;DHT22;11128;51.096;17.190;2024-01-30T18:25:22;5.90;99.90
21928;DHT22;11128;51.096;17.190;2024-01-30T18:30:23;5.90;99.90
21928;DHT22;11128;51.096;17.190;2024-01-30T18:35:25;5.90;99.90
21928;DHT22;11128;51.096;17.190;2024-01-30T18:40:26;5.80;99.90
21928;DHT22;11128;51.096;17.190;2024-01-30T18:45:27;5.70;99.90
21928;DHT22;11128;51.096;17.190;2024-01-30T18:50:29;5.70;99.90
21928;DHT22;11128;51.096;17.190;2024-01-30T18:55:30;5.70;99.90
21928;DHT22;11128;51.096;17.190;2024-01-30T19:00:33;5.60;99.90
21928;DHT22;11128;51.096;17.190;2024-01-30T19:05:37;5.60;99.90
21928;DHT22;11128;51.096;17.190;2024-01-30T19:10:38;5.60;99.90
21928;DHT22;11128;51.096;17.190;2024-01-30T19:15:42;5.90;99.90
21928;DHT22;11128;51.096;17.190;2024-01-30T19:20:44;5.50;99.90
21928;DHT22;11128;51.096;17.190;2024-01-30T19:25:46;5.50;99.90
21928;DHT22;11128;51.096;17.190;2024-01-30T19:30:47;5.50;99.90
21928;DHT22;11128;51.096;17.190;2024-01-30T19:35:49;5.50;99.90
21928;DHT22;11128;51.096;17.190;2024-01-30T19:40:51;5.40;99.90
21928;DHT22;11128;51.096;17.190;2024-01-30T19:45:53;5.40;99.90
21928;DHT22;11128;51.096;17.190;2024-01-30T19:50:55;5.30;99.90
21928;DHT22;11128;51.096;17.190;2024-01-30T19:55:57;5.30;99.90
21928;DHT22;11128;51.096;17.190;2024-01-30T20:00:58;5.20;99.90
21928;DHT22;11128;51.096;17.190;2024-01-30T20:05:59;5.20;99.90
21928;DHT22;11128;51.096;17.190;2024-01-30T20:11:01;5.20;99.90
21928;DHT22;11128;51.096;17.190;2024-01-30T20:16:04;5.10;99.90
21928;DHT22;11128;51.096;17.190;2024-01-30T20:21:07;5.10;99.90
21928;DHT22;11128;51.096;17.190;2024-01-30T20:26:09;5.30;99.90
21928;DHT22;11128;51.096;17.190;2024-01-30T20:31:11;4.90;99.90
21928;DHT22;11128;51.096;17.190;2024-01-30T20:36:14;4.80;99.90
21928;DHT22;11128;51.096;17.190;2024-01-30T20:41:16;4.70;99.90
21928;DHT22;11128;51.096;17.190;2024-01-30T20:46:18;4.60;99.90
21928;DHT22;11128;51.096;17.190;2024-01-30T20:51:19;4.50;99.90
21928;DHT22;11128;51.096;17.190;2024-01-30T20:56:20;4.90;99.90
21928;DHT22;11128;51.096;17.190;2024-01-30T21:01:21;5.10;99.90
21928;DHT22;11128;51.096;17.190;2024-01-30T21:06:22;4.10;99.90
21928;DHT22;11128;51.096;17.190;2024-01-30T21:11:24;4.20;99.90
21928;DHT22;11128;51.096;17.190;2024-01-30T21:16:25;4.10;99.90
21928;DHT22;11128;51.096;17.190;2024-01-30T21:21:27;4.00;99.90
21928;DHT22;11128;51.096;17.190;2024-01-30T21:26:30;3.90;99.90
21928;DHT22;11128;51.096;17.190;2024-01-30T21:31:31;3.70;1.00
21928;DHT22;11128;51.096;17.190;2024-01-30T21:36:32;3.60;1.00
21928;DHT22;11128;51.096;17.190;2024-01-30T21:41:33;3.40;1.00
21928;DHT22;11128;51.096;17.190;2024-01-30T21:46:35;3.30;1.00
21928;DHT22;11128;51.096;17.190;2024-01-30T21:51:36;3.50;1.00
21928;DHT22;11128;51.096;17.190;2024-01-30T21:56:37;3.60;1.00
21928;DHT22;11128;51.096;17.190;2024-01-30T22:01:38;3.30;1.00
21928;DHT22;11128;51.096;17.190;2024-01-30T22:06:39;3.20;1.00
21928;DHT22;11128;51.096;17.190;2024-01-30T22:11:41;3.20;1.00
21928;DHT22;11128;51.096;17.190;2024-01-30T22:16:43;3.00;1.00
21928;DHT22;11128;51.096;17.190;2024-01-30T22:21:45;3.00;1.00
21928;DHT22;11128;51.096;17.190;2024-01-30T22:26:46;3.30;1.00
21928;DHT22;11128;51.096;17.190;2024-01-30T22:31:47;3.00;1.00
21928;DHT22;11128;51.096;17.190;2024-01-30T22:36:48;3.00;1.00
21928;DHT22;11128;51.096;17.190;2024-01-30T22:41:50;3.30;1.00
21928;DHT22;11128;51.096;17.190;2024-01-30T22:46:51;3.00;1.00
21928;DHT22;11128;51.096;17.190;2024-01-30T22:51:52;3.10;1.00
21928;DHT22;11128;51.096;17.190;2024-01-30T22:56:53;3.10;1.00
21928;DHT22;11128;51.096;17.190;2024-01-30T23:01:54;3.10;1.00
21928;DHT22;11128;51.096;17.190;2024-01-30T23:06:56;3.10;1.00
21928;DHT22;11128;51.096;17.190;2024-01-30T23:11:57;2.90;1.00
21928;DHT22;11128;51.096;17.190;2024-01-30T23:16:59;2.80;1.00
21928;DHT22;11128;51.096;17.190;2024-01-30T23:22:01;3.40;1.00
21928;DHT22;11128;51.096;17.190;2024-01-30T23:27:02;3.80;1.00
21928;DHT22;11128;51.096;17.190;2024-01-30T23:32:05;2.80;1.00
21928;DHT22;11128;51.096;17.190;2024-01-30T23:37:06;2.70;1.00
21928;DHT22;11128;51.096;17.190;2024-01-30T23:42:08;2.80;1.00
21928;DHT22;11128;51.096;17.190;2024-01-30T23:47:11;2.70;1.00
21928;DHT22;11128;51.096;17.190;2024-01-30T23:52:12;3.20;33.90
21928;DHT22;11128;51.096;17.190;2024-01-30T23:57:14;2.60;99.90
